Stanwood, Washington
Current Conditions -  °F | °C
As of 7:15 PM on Tuesday 25 Nov 2014 (Local Time) from KAWO Reporting Station
Overcast Overcast  
Wind Chill: 42°   Ceiling: 800
Heat Index: 45°   Visibility: 6mi
Dew Point: 43°   Wind: 5mph
Humidity: 93%   Direction: 360°N
Pressure: 30.16"   Gusts: NA
Location:  48.24°N, 122.37°W
Report Text: KAWO 260315Z AUTO 36004KT 6SM OVC008 07/06 A3016 RMK AO1
Loading
Personal Weather Stations






























Interactive Weather Map New forecast layout! Learn more

10-Day Weather Forecast

Advertisements
Track Severe Weather on mobile